Time;durP1;ratioP1;P1;durP2;ratioP2;P2;SDS_P1;SDS_P2;PMS_P1;PMS_P2;Temp;Humidity;BMP_temperature;BMP_pressure;BME280_temperature;BME280_humidity;BME280_pressure;Samples;Min_cycle;Max_cycle;Signal;HPM_P1;HPM_P2
2021/06/10 00:02:20;;;;;;;13.80;12.40;;;;;;;16.43;100.00;96725.16;4980599;28;20513;-91
2021/06/10 00:04:46;;;;;;;14.90;11.23;;;;;;;16.35;100.00;96724.56;4982961;28;20458;-92
2021/06/10 00:07:13;;;;;;;14.73;12.50;;;;;;;16.29;100.00;96721.41;4984293;28;20452;-92
2021/06/10 00:09:39;;;;;;;13.43;11.87;;;;;;;16.27;100.00;96723.97;4983420;28;20875;-91
2021/06/10 00:12:08;;;;;;;14.27;12.63;;;;;;;16.31;100.00;96719.53;4993107;28;20549;-89
2021/06/10 00:14:35;;;;;;;15.43;11.70;;;;;;;16.30;100.00;96718.09;4998869;28;20453;-92
2021/06/10 00:17:01;;;;;;;12.23;11.00;;;;;;;16.23;100.00;96718.94;4980389;28;20496;-92
2021/06/10 00:19:27;;;;;;;12.60;10.90;;;;;;;16.21;100.00;96720.81;4978563;28;20470;-90
2021/06/10 00:21:53;;;;;;;12.83;11.50;;;;;;;16.24;100.00;96716.94;4979456;28;20979;-92
2021/06/10 00:24:19;;;;;;;13.47;11.83;;;;;;;16.19;100.00;96718.66;4980979;28;20450;-92
2021/06/10 00:26:45;;;;;;;15.50;13.03;;;;;;;16.21;100.00;96720.81;4981088;28;20482;-92
2021/06/10 00:29:13;;;;;;;13.90;11.93;;;;;;;16.22;100.00;96714.06;4980572;28;20532;-92
2021/06/10 00:31:39;;;;;;;18.50;11.40;;;;;;;16.23;100.00;96718.94;4980268;28;20908;-92
2021/06/10 00:34:05;;;;;;;13.43;12.03;;;;;;;16.19;100.00;96720.66;4980205;28;20481;-92
2021/06/10 00:36:32;;;;;;;13.40;10.63;;;;;;;16.25;100.00;96729.28;4980551;28;20536;-92
2021/06/10 00:38:58;;;;;;;13.37;11.90;;;;;;;16.29;100.00;96726.84;4995194;28;20434;-89
2021/06/10 00:41:24;;;;;;;15.73;13.60;;;;;;;16.30;100.00;96723.56;4999825;28;20429;-92
2021/06/10 00:43:50;;;;;;;13.07;11.67;;;;;;;16.30;100.00;96723.56;5000538;28;20444;-92
2021/06/10 00:46:18;;;;;;;12.20;10.77;;;;;;;16.43;99.97;96717.00;4999586;28;20554;-89
2021/06/10 00:48:44;;;;;;;15.03;12.40;;;;;;;16.46;99.23;96719.28;5000176;28;20441;-91
2021/06/10 00:51:10;;;;;;;12.40;11.20;;;;;;;16.42;98.82;96723.72;4983560;28;20490;-92
2021/06/10 00:53:37;;;;;;;11.63;10.50;;;;;;;16.40;99.21;96724.28;4982460;28;20931;-93
2021/06/10 00:56:05;;;;;;;11.23;10.00;;;;;;;16.42;99.13;96723.72;4981209;28;20481;-93
2021/06/10 00:58:32;;;;;;;12.07;10.87;;;;;;;16.41;99.05;96727.75;4981827;28;20593;-93
2021/06/10 01:01:00;;;;;;;12.10;10.80;;;;;;;16.39;99.21;96731.03;4984434;28;20464;-93
2021/06/10 01:03:28;;;;;;;11.90;10.33;;;;;;;16.28;99.31;96737.03;4998492;28;20484;-92
2021/06/10 01:05:58;;;;;;;12.73;11.30;;;;;;;16.25;99.81;96737.44;4999412;28;20458;-92
2021/06/10 01:08:30;;;;;;;14.83;12.70;;;;;;;16.22;99.96;96733.13;4999470;28;20470;-92
2021/06/10 01:11:09;;;;;;;14.00;12.13;;;;;;;16.12;100.00;96730.38;4984984;28;21036;-92
2021/06/10 01:13:44;;;;;;;13.50;11.63;;;;;;;16.07;100.00;96728.63;4979288;28;20511;-90
2021/06/10 01:16:15;;;;;;;12.87;11.10;;;;;;;16.02;100.00;96729.63;4977464;28;20457;-91
2021/06/10 01:18:43;;;;;;;17.10;13.57;;;;;;;15.98;100.00;96724.59;4978124;28;20919;-91
2021/06/10 01:21:10;;;;;;;13.77;12.20;;;;;;;15.94;100.00;96726.31;4978741;28;20446;-90
2021/06/10 01:23:52;;;;;;;13.70;12.37;;;;;;;15.91;100.00;96722.69;4978667;28;20994;-90
2021/06/10 01:26:27;;;;;;;18.63;14.27;;;;;;;15.83;100.00;96727.53;4978432;28;20465;-90
2021/06/10 01:28:55;;;;;;;14.53;13.03;;;;;;;15.84;100.00;96728.25;4976889;28;20862;-90
2021/06/10 01:31:22;;;;;;;15.23;13.63;;;;;;;15.84;100.00;96729.00;4978031;28;20525;-90
2021/06/10 01:33:51;;;;;;;14.80;11.83;;;;;;;15.87;100.00;96732.56;4977764;28;20448;-90
2021/06/10 01:36:20;;;;;;;16.20;12.50;;;;;;;15.94;100.00;96718.16;4977803;28;20470;-90
2021/06/10 01:38:50;;;;;;;15.00;13.33;;;;;;;15.89;100.00;96727.28;4979241;28;20525;-90
2021/06/10 01:41:18;;;;;;;19.10;13.17;;;;;;;15.83;100.00;96729.53;4985157;28;20450;-91
2021/06/10 01:43:46;;;;;;;17.10;13.40;;;;;;;15.79;100.00;96721.78;4986846;28;20517;-91
2021/06/10 01:46:14;;;;;;;16.60;13.90;;;;;;;15.76;100.00;96717.47;4988606;28;20525;-91
2021/06/10 01:48:43;;;;;;;18.70;13.83;;;;;;;15.73;100.00;96717.88;4989065;28;20485;-90
2021/06/10 01:51:10;;;;;;;16.80;13.47;;;;;;;15.68;100.00;96713.44;4988600;28;20517;-89
2021/06/10 01:53:39;;;;;;;15.27;12.77;;;;;;;15.67;100.00;96715.44;4988509;28;20518;-89
2021/06/10 01:56:05;;;;;;;15.23;13.67;;;;;;;15.65;100.00;96712.56;4995480;28;20491;-90
2021/06/10 01:58:32;;;;;;;17.03;13.30;;;;;;;15.68;100.00;96710.72;4986197;28;20446;-90
2021/06/10 02:01:01;;;;;;;14.77;13.27;;;;;;;15.67;100.00;96704.56;4993838;28;20453;-90
2021/06/10 02:03:29;;;;;;;14.10;12.70;;;;;;;15.71;100.00;96702.16;4994971;28;20434;-89
2021/06/10 02:05:57;;;;;;;14.70;13.03;;;;;;;15.70;100.00;96700.69;4985643;28;20570;-91
2021/06/10 02:08:24;;;;;;;15.67;13.77;;;;;;;15.68;100.00;96699.84;4977564;28;20450;-89
2021/06/10 02:10:52;;;;;;;14.40;12.90;;;;;;;15.66;100.00;96697.69;4979347;28;20577;-90
2021/06/10 02:13:19;;;;;;;17.23;12.40;;;;;;;15.66;100.00;96700.41;4977046;28;20541;-90
2021/06/10 02:15:45;;;;;;;14.70;13.20;;;;;;;15.63;100.00;96693.34;4976784;28;20513;-90
2021/06/10 02:18:12;;;;;;;17.90;13.67;;;;;;;15.60;100.00;96691.06;4978120;28;20540;-89
2021/06/10 02:20:40;;;;;;;16.10;13.50;;;;;;;15.58;100.00;96691.63;4978275;28;20446;-90
2021/06/10 02:23:07;;;;;;;18.90;14.70;;;;;;;15.53;100.00;96687.91;4976825;28;20434;-90
2021/06/10 02:25:34;;;;;;;14.80;12.57;;;;;;;15.53;100.00;96684.44;4976458;28;20474;-90
2021/06/10 02:28:01;;;;;;;15.50;13.10;;;;;;;15.50;100.00;96685.59;4976717;28;20485;-89
2021/06/10 02:30:28;;;;;;;16.30;13.67;;;;;;;15.49;100.00;96693.03;4977521;28;20446;-90
2021/06/10 02:32:54;;;;;;;15.90;14.10;;;;;;;15.50;100.00;96693.75;4977063;28;20532;-90
2021/06/10 02:35:20;;;;;;;17.00;13.40;;;;;;;15.49;100.00;96692.28;4977307;28;20464;-90
2021/06/10 02:37:50;;;;;;;16.57;13.10;;;;;;;15.50;100.00;96688.31;4975763;28;20514;-90
2021/06/10 02:40:25;;;;;;;16.10;13.90;;;;;;;15.43;100.00;96695.25;4976980;28;20575;-90
2021/06/10 02:42:51;;;;;;;15.57;13.63;;;;;;;15.40;100.00;96688.22;4977608;28;20454;-91
2021/06/10 02:45:17;;;;;;;15.40;12.47;;;;;;;15.40;100.00;96682.78;4977179;28;20987;-91
2021/06/10 02:47:44;;;;;;;16.20;13.90;;;;;;;15.41;100.00;96686.22;4977763;28;20483;-91
2021/06/10 02:50:14;;;;;;;17.83;13.60;;;;;;;15.38;100.00;96690.78;4978184;28;20465;-91
2021/06/10 02:52:43;;;;;;;15.00;13.50;;;;;;;15.37;100.00;96688.63;4977588;28;20900;-91
2021/06/10 02:55:13;;;;;;;15.23;13.30;;;;;;;15.36;100.00;96682.47;4977986;28;20470;-92
2021/06/10 02:57:40;;;;;;;18.30;14.43;;;;;;;15.36;100.00;96684.47;4976880;28;20553;-91
2021/06/10 03:00:07;;;;;;;19.40;14.60;;;;;;;15.35;100.00;96680.28;4978452;28;20457;-91
2021/06/10 03:02:34;;;;;;;18.23;14.80;;;;;;;15.32;100.00;96684.88;4978288;28;20969;-91
2021/06/10 03:05:01;;;;;;;17.13;14.30;;;;;;;15.31;100.00;96680.72;4981524;28;20466;-91
2021/06/10 03:07:27;;;;;;;16.57;14.60;;;;;;;15.31;100.00;96677.28;4980285;28;20460;-91
2021/06/10 03:09:54;;;;;;;16.13;14.07;;;;;;;15.31;100.00;96682.72;4981014;28;20452;-92
2021/06/10 03:12:22;;;;;;;20.77;14.70;;;;;;;15.28;100.00;96675.69;4977912;28;20489;-91
2021/06/10 03:14:48;;;;;;;17.13;14.90;;;;;;;15.29;100.00;96677.84;4978476;28;20476;-89
2021/06/10 03:17:19;;;;;;;14.97;13.20;;;;;;;15.33;100.00;96682.88;4978144;28;20458;-90
2021/06/10 03:19:46;;;;;;;15.63;13.77;;;;;;;15.33;100.00;96686.31;4978075;28;20496;-89
2021/06/10 03:22:12;;;;;;;18.07;15.20;;;;;;;15.33;100.00;96680.88;4977953;28;20884;-90
2021/06/10 03:24:39;;;;;;;16.97;13.90;;;;;;;15.34;100.00;96682.31;4977234;28;20434;-89
2021/06/10 03:27:07;;;;;;;19.00;14.00;;;;;;;15.31;100.00;96680.72;4978424;28;20454;-89
2021/06/10 03:29:34;;;;;;;17.00;15.17;;;;;;;15.33;100.00;96682.88;4992920;28;20446;-89
2021/06/10 03:32:01;;;;;;;15.40;13.57;;;;;;;15.35;100.00;96683.03;4997778;28;20549;-91
2021/06/10 03:34:28;;;;;;;15.17;13.10;;;;;;;15.37;100.00;96683.91;4998267;28;20446;-90
2021/06/10 03:36:55;;;;;;;17.07;12.97;;;;;;;15.35;100.00;96685.75;4996377;28;20458;-88
2021/06/10 03:39:21;;;;;;;16.60;14.37;;;;;;;15.35;100.00;96675.59;4992193;28;20456;-89
2021/06/10 03:41:48;;;;;;;17.40;14.23;;;;;;;15.37;100.00;96688.63;4994881;28;20853;-89
2021/06/10 03:44:17;;;;;;;16.90;15.07;;;;;;;15.39;100.00;96684.06;4992117;28;20820;-89
2021/06/10 03:46:45;;;;;;;17.07;14.53;;;;;;;15.43;100.00;96672.78;4985124;28;20465;-90
2021/06/10 03:49:12;;;;;;;17.57;14.17;;;;;;;15.46;100.00;96680.53;4981531;28;20461;-89
2021/06/10 03:51:38;;;;;;;15.87;13.93;;;;;;;15.55;100.00;96684.59;4981545;28;20485;-90
2021/06/10 03:54:06;;;;;;;14.17;12.47;;;;;;;15.85;100.00;96686.16;4982222;28;20442;-90
2021/06/10 03:56:32;;;;;;;14.73;13.07;;;;;;;16.18;100.00;96691.97;4980870;28;20880;-91
2021/06/10 03:58:58;;;;;;;14.67;13.10;;;;;;;16.51;100.00;96682.88;4981171;28;20434;-91
2021/06/10 04:01:24;;;;;;;15.97;13.80;;;;;;;16.81;99.56;96686.34;4982603;28;20549;-91
2021/06/10 04:03:51;;;;;;;14.33;12.83;;;;;;;17.07;97.33;96694.38;4982818;28;20450;-91
2021/06/10 04:06:24;;;;;;;15.80;12.90;;;;;;;17.25;95.82;96691.50;4982510;28;20528;-91
2021/06/10 04:08:50;;;;;;;13.90;12.43;;;;;;;17.48;94.11;96688.97;4984844;28;20489;-91
2021/06/10 04:11:16;;;;;;;15.37;11.77;;;;;;;17.69;92.83;96696.56;4983404;28;20485;-91
2021/06/10 04:13:42;;;;;;;13.73;12.20;;;;;;;18.03;91.44;96691.41;4984484;28;20541;-91
2021/06/10 04:16:08;;;;;;;14.20;12.70;;;;;;;18.17;90.23;96695.06;4983804;28;20532;-91
2021/06/10 04:18:35;;;;;;;14.83;13.07;;;;;;;18.34;89.10;96696.13;4981564;28;20589;-90
2021/06/10 04:21:02;;;;;;;14.07;12.60;;;;;;;18.60;87.60;96703.31;4980422;28;20453;-89
2021/06/10 04:23:29;;;;;;;16.80;13.00;;;;;;;18.67;86.79;96713.31;4981687;28;20915;-90
2021/06/10 04:25:55;;;;;;;14.60;12.03;;;;;;;19.10;85.43;96701.06;4981321;28;20493;-90
2021/06/10 04:28:22;;;;;;;18.87;13.63;;;;;;;19.29;84.00;96700.16;4986477;28;20436;-92
2021/06/10 04:30:57;;;;;;;13.63;11.70;;;;;;;19.46;83.16;96708.06;5000998;28;20442;-92
2021/06/10 04:33:23;;;;;;;13.00;11.70;;;;;;;19.68;82.40;96703.22;5001156;28;20430;-88
2021/06/10 04:35:49;;;;;;;15.43;12.17;;;;;;;20.06;80.06;96699.31;4991934;28;20458;-92
2021/06/10 04:38:17;;;;;;;13.30;12.00;;;;;;;20.20;79.25;96702.91;4983966;28;20474;-92
2021/06/10 04:40:44;;;;;;;15.97;12.27;;;;;;;20.40;78.45;96703.38;4980854;28;20521;-92
2021/06/10 04:43:10;;;;;;;15.13;11.67;;;;;;;20.48;77.92;96710.03;4983037;28;20544;-92
2021/06/10 04:45:37;;;;;;;15.07;12.00;;;;;;;20.61;77.30;96703.91;4981598;28;20549;-91
2021/06/10 04:48:04;;;;;;;16.47;13.23;;;;;;;20.71;76.76;96712.00;4980733;28;20477;-91
2021/06/10 04:50:31;;;;;;;15.30;12.63;;;;;;;20.70;76.66;96708.56;4980786;28;20488;-91
2021/06/10 04:52:58;;;;;;;13.60;12.20;;;;;;;20.96;75.96;96712.03;4982325;28;20587;-91
2021/06/10 04:55:26;;;;;;;14.83;12.80;;;;;;;21.18;75.12;96712.56;4982091;28;20986;-91
2021/06/10 04:57:52;;;;;;;18.23;13.07;;;;;;;21.30;74.57;96708.47;4981968;28;20466;-91
2021/06/10 05:00:19;;;;;;;13.50;11.27;;;;;;;21.73;72.89;96718.97;4981284;28;20521;-92
2021/06/10 05:02:45;;;;;;;21.60;10.97;;;;;;;21.86;71.96;96724.47;4981819;28;20517;-92
2021/06/10 05:05:12;;;;;;;14.63;11.73;;;;;;;21.67;73.03;96713.88;4983343;28;20577;-92
2021/06/10 05:07:38;;;;;;;14.33;11.20;;;;;;;21.95;72.37;96720.16;4982121;28;20460;-92
2021/06/10 05:10:05;;;;;;;16.30;11.90;;;;;;;22.01;71.49;96717.72;4981996;28;20476;-91
2021/06/10 05:12:32;;;;;;;16.30;11.33;;;;;;;22.45;69.78;96715.78;4981147;28;20493;-91
2021/06/10 05:14:58;;;;;;;14.07;12.20;;;;;;;22.24;70.93;96714.06;4980756;28;20554;-90
2021/06/10 05:17:25;;;;;;;22.97;11.53;;;;;;;22.37;70.06;96719.56;4982561;28;20430;-90
2021/06/10 05:19:51;;;;;;;14.07;11.33;;;;;;;22.46;69.97;96717.22;4985282;28;20446;-91
2021/06/10 05:22:17;;;;;;;13.90;11.77;;;;;;;22.58;69.44;96721.28;4986271;28;20525;-92
2021/06/10 05:24:43;;;;;;;13.53;11.50;;;;;;;22.77;69.08;96723.59;4984674;28;20804;-91
2021/06/10 05:27:09;;;;;;;12.27;10.57;;;;;;;22.94;68.42;96725.09;4984947;28;20516;-91
2021/06/10 05:29:37;;;;;;;15.50;10.27;;;;;;;23.28;66.94;96715.72;4983429;28;20538;-91
2021/06/10 05:32:04;;;;;;;12.50;9.73;;;;;;;23.77;65.65;96729.00;4981793;28;20553;-92
2021/06/10 05:34:30;;;;;;;10.77;9.70;;;;;;;23.82;65.34;96727.81;4982909;28;20434;-92
2021/06/10 05:36:57;;;;;;;10.70;9.63;;;;;;;23.80;65.67;96727.75;4983734;28;20526;-92
2021/06/10 05:39:23;;;;;;;12.60;10.33;;;;;;;23.64;66.22;96724.97;4984406;28;20465;-92
2021/06/10 05:41:51;;;;;;;13.37;10.37;;;;;;;24.03;65.40;96716.34;4990863;28;20449;-94
2021/06/10 05:44:17;;;;;;;11.40;9.13;;;;;;;24.03;65.02;96727.38;4987924;28;20457;-91
2021/06/10 05:46:44;;;;;;;13.37;10.47;;;;;;;24.18;64.68;96728.75;4981412;28;20465;-90
2021/06/10 05:49:11;;;;;;;10.83;9.70;;;;;;;24.35;64.17;96728.81;4981547;28;20513;-91
2021/06/10 05:51:37;;;;;;;10.43;8.63;;;;;;;24.86;62.93;96733.69;4982803;28;20589;-92
2021/06/10 05:54:03;;;;;;;16.43;10.37;;;;;;;25.25;61.45;96733.19;4980408;28;20454;-90
2021/06/10 05:56:29;;;;;;;10.90;8.57;;;;;;;25.32;61.33;96730.00;4981040;28;20485;-90
2021/06/10 05:58:56;;;;;;;13.20;9.00;;;;;;;25.69;60.32;96734.16;4980047;28;20497;-90
2021/06/10 06:01:22;;;;;;;9.90;8.63;;;;;;;25.82;59.89;96730.50;4980933;28;20446;-91
2021/06/10 06:03:50;;;;;;;10.53;9.17;;;;;;;25.93;59.86;96735.09;4981751;28;20439;-90
2021/06/10 06:06:18;;;;;;;9.80;8.80;;;;;;;26.25;58.79;96741.78;4981373;28;20599;-90
2021/06/10 06:08:45;;;;;;;9.23;8.33;;;;;;;26.12;59.21;96742.69;4980288;28;20451;-90
2021/06/10 06:11:11;;;;;;;9.60;8.37;;;;;;;26.12;59.39;96741.97;4978586;28;20927;-89
2021/06/10 06:13:45;;;;;;;9.97;8.97;;;;;;;26.36;58.68;96746.34;4979219;28;20521;-91
2021/06/10 06:16:13;;;;;;;10.47;9.57;;;;;;;26.66;56.82;96757.06;4980361;28;20468;-91
2021/06/10 06:18:40;;;;;;;10.83;8.30;;;;;;;26.51;57.80;96753.78;4977334;28;20446;-90
2021/06/10 06:21:08;;;;;;;10.50;9.47;;;;;;;26.69;57.20;96753.00;4995908;28;20442;-92
2021/06/10 06:23:34;;;;;;;9.83;8.93;;;;;;;26.89;56.25;96754.41;4997867;28;20438;-90
2021/06/10 06:26:00;;;;;;;14.20;10.03;;;;;;;27.00;56.62;96761.66;4997701;28;20461;-91
2021/06/10 06:28:27;;;;;;;9.97;9.03;;;;;;;27.07;56.77;96757.75;4991441;28;20490;-90
2021/06/10 06:30:53;;;;;;;11.50;9.07;;;;;;;27.00;55.83;96758.91;4981548;28;20569;-90
2021/06/10 06:33:19;;;;;;;15.40;9.13;;;;;;;27.10;56.86;96764.06;4982877;28;20456;-93
2021/06/10 06:35:45;;;;;;;9.63;8.73;;;;;;;27.44;55.13;96762.41;4981883;28;20497;-92
2021/06/10 06:38:13;;;;;;;12.10;10.07;;;;;;;27.52;55.13;96764.72;4980481;28;20454;-92
2021/06/10 06:40:39;;;;;;;9.50;8.50;;;;;;;27.54;55.51;96767.56;4982254;28;20474;-92
2021/06/10 06:43:06;;;;;;;9.20;8.50;;;;;;;27.27;55.19;96757.69;4982646;28;21107;-92
2021/06/10 06:45:33;;;;;;;10.47;9.37;;;;;;;27.46;55.37;96767.31;4995236;28;20457;-90
2021/06/10 06:47:59;;;;;;;9.10;8.30;;;;;;;27.86;54.83;96767.81;4990060;28;20438;-92
2021/06/10 06:50:26;;;;;;;11.93;8.77;;;;;;;28.16;53.91;96766.66;4989881;28;20534;-94
2021/06/10 06:52:52;;;;;;;9.43;8.37;;;;;;;28.16;53.11;96766.66;4998468;28;20470;-95
2021/06/10 06:55:19;;;;;;;10.80;9.67;;;;;;;28.06;53.27;96769.16;4998065;28;20458;-95
2021/06/10 07:15:54;;;;;;;9.20;8.40;;;;;;;28.71;50.79;96787.59;4990847;28;20549;-91
2021/06/10 07:18:20;;;;;;;9.80;8.90;;;;;;;27.90;51.37;96788.09;4981825;28;20545;-92
2021/06/10 07:20:47;;;;;;;11.97;10.83;;;;;;;27.38;52.56;96786.47;4981807;28;20478;-89
2021/06/10 07:23:13;;;;;;;14.87;13.43;;;;;;;27.26;52.12;96778.44;4973774;28;20919;-91
2021/06/10 07:25:39;;;;;;;18.30;16.40;;;;;;;26.68;53.73;96784.81;4967915;28;20549;-92
2021/06/10 07:28:06;;;;;;;15.93;14.40;;;;;;;27.02;53.37;96783.22;4968617;29;20544;-93
2021/06/10 07:30:32;;;;;;;12.93;11.47;;;;;;;27.38;53.44;96789.91;4965588;29;21053;-92
2021/06/10 07:32:59;;;;;;;13.40;11.27;;;;;;;27.70;52.97;96790.25;4965820;29;20513;-93
2021/06/10 07:35:25;;;;;;;11.70;10.70;;;;;;;28.04;52.10;96787.75;4977972;28;20474;-92
2021/06/10 07:37:53;;;;;;;14.43;12.30;;;;;;;27.96;52.09;96790.31;4980139;28;20439;-91
2021/06/10 07:40:22;;;;;;;13.37;12.13;;;;;;;27.21;53.07;96788.00;4981033;28;20486;-92
2021/06/10 07:42:48;;;;;;;12.53;11.33;;;;;;;26.98;53.79;96794.16;4978665;28;20534;-91
2021/06/10 07:45:16;;;;;;;13.17;11.97;;;;;;;26.98;54.26;96794.88;4973046;28;20462;-90
2021/06/10 07:47:42;;;;;;;13.27;11.50;;;;;;;26.79;55.81;96797.63;4979264;28;20556;-90
2021/06/10 07:50:11;;;;;;;12.73;11.43;;;;;;;26.98;55.00;96794.16;4976208;28;20442;-89
2021/06/10 07:52:38;;;;;;;13.23;11.93;;;;;;;27.14;55.38;96794.69;4965665;29;20520;-90
2021/06/10 07:55:05;;;;;;;11.90;10.90;;;;;;;27.16;55.18;96789.19;4964445;28;20497;-91
2021/06/10 07:57:31;;;;;;;13.20;12.00;;;;;;;26.99;55.18;96801.84;4964399;29;20438;-91
2021/06/10 07:59:58;;;;;;;13.37;11.70;;;;;;;27.28;55.08;96795.16;4964856;29;20462;-90
2021/06/10 08:02:26;;;;;;;14.63;12.60;;;;;;;26.64;56.41;96790.91;4966129;29;20817;-91
2021/06/10 08:04:52;;;;;;;16.27;14.57;;;;;;;26.09;57.26;96791.69;4966011;28;20443;-90
2021/06/10 08:07:20;;;;;;;16.40;11.50;;;;;;;26.65;56.29;96791.63;4965201;28;20450;-90
2021/06/10 08:09:46;;;;;;;13.83;12.47;;;;;;;26.45;57.76;96789.56;4967448;29;20438;-92
2021/06/10 08:12:12;;;;;;;14.30;12.97;;;;;;;26.00;59.43;96786.53;4965629;29;20577;-92
2021/06/10 08:14:38;;;;;;;15.87;14.27;;;;;;;26.18;58.81;96783.72;4966705;29;20501;-94
2021/06/10 08:17:04;;;;;;;13.70;12.30;;;;;;;26.76;57.79;96780.25;4968042;28;20574;-93
2021/06/10 08:19:31;;;;;;;14.50;13.00;;;;;;;26.09;59.73;96780.63;4968584;29;20612;-93
2021/06/10 08:21:57;;;;;;;16.00;13.10;;;;;;;26.28;59.11;96782.03;4979230;28;20523;-90
2021/06/10 08:24:24;;;;;;;13.13;11.83;;;;;;;26.32;59.44;96784.94;4975018;28;20462;-92
2021/06/10 08:26:51;;;;;;;14.30;11.90;;;;;;;26.26;60.14;96781.97;4964975;28;20471;-90
2021/06/10 08:29:17;;;;;;;13.00;11.70;;;;;;;26.49;59.81;96778.66;4966078;29;20478;-91
2021/06/10 08:31:44;;;;;;;13.97;12.67;;;;;;;26.20;59.87;96778.25;4962714;29;20510;-91
2021/06/10 08:34:10;;;;;;;13.93;12.57;;;;;;;25.93;60.80;96774.53;4964602;29;20525;-91
2021/06/10 08:36:36;;;;;;;14.73;13.20;;;;;;;25.77;61.44;96776.69;4963568;28;20872;-92
2021/06/10 08:39:04;;;;;;;14.27;12.97;;;;;;;25.92;60.83;96769.63;4970403;29;20569;-92
2021/06/10 08:41:33;;;;;;;15.23;13.07;;;;;;;25.71;61.53;96770.94;4964697;29;20443;-93
2021/06/10 08:43:59;;;;;;;15.13;13.23;;;;;;;25.92;61.42;96775.16;4965614;29;20451;-91
2021/06/10 08:46:26;;;;;;;13.67;12.27;;;;;;;25.73;61.14;96773.75;4965049;28;20469;-91
2021/06/10 08:48:53;;;;;;;18.70;13.37;;;;;;;24.96;64.04;96770.72;4969128;29;20525;-90
2021/06/10 08:51:20;;;;;;;15.10;13.60;;;;;;;25.08;63.25;96769.78;4974358;29;20442;-93
2021/06/10 08:53:47;;;;;;;15.97;14.30;;;;;;;25.40;62.24;96771.78;4973574;29;20443;-92
2021/06/10 08:56:13;;;;;;;15.03;12.90;;;;;;;25.73;62.20;96773.03;4969584;28;20463;-92
2021/06/10 08:58:41;;;;;;;15.80;12.33;;;;;;;25.45;62.60;96772.66;4968095;29;20451;-91
2021/06/10 09:01:12;;;;;;;15.63;12.00;;;;;;;25.87;61.00;96776.34;4965553;29;20466;-91
2021/06/10 09:03:39;;;;;;;14.17;12.70;;;;;;;25.49;62.43;96767.31;4966567;29;20447;-92
2021/06/10 09:06:07;;;;;;;15.00;13.50;;;;;;;25.21;62.35;96772.41;4965756;28;20542;-92
2021/06/10 09:08:34;;;;;;;15.33;13.83;;;;;;;25.07;63.34;96765.59;4964163;29;20545;-92
2021/06/10 09:11:11;;;;;;;22.80;13.80;;;;;;;25.46;61.77;96765.78;4966240;29;20451;-91
2021/06/10 09:13:45;;;;;;;14.83;13.33;;;;;;;25.51;61.53;96773.63;4978940;28;20490;-90
2021/06/10 09:16:26;;;;;;;16.43;13.00;;;;;;;25.51;62.04;96764.63;4977290;28;20467;-90
2021/06/10 09:18:57;;;;;;;16.60;13.57;;;;;;;25.32;63.07;96774.22;4976060;28;20427;-91
2021/06/10 09:21:28;;;;;;;19.10;15.60;;;;;;;25.54;62.55;96775.13;4969329;29;20439;-92
2021/06/10 09:23:55;;;;;;;17.40;15.03;;;;;;;25.50;61.84;96779.78;4965103;29;20527;-91
2021/06/10 09:26:21;;;;;;;22.60;15.87;;;;;;;25.20;61.82;96773.75;4965536;28;20486;-93
2021/06/10 09:29:06;;;;;;;18.00;15.60;;;;;;;25.15;62.09;96779.75;4965718;29;20590;-93
2021/06/10 09:31:35;;;;;;;17.53;15.63;;;;;;;25.11;61.68;96783.06;4966178;29;20577;-92
2021/06/10 09:34:07;;;;;;;16.90;14.30;;;;;;;25.27;62.41;96777.47;4966110;29;20514;-92
2021/06/10 09:36:40;;;;;;;22.20;15.70;;;;;;;24.86;62.28;96773.06;4969824;28;20475;-92
2021/06/10 09:39:13;;;;;;;17.23;15.53;;;;;;;24.98;62.93;96770.09;4965935;29;20487;-90
2021/06/10 09:41:59;;;;;;;17.87;15.80;;;;;;;24.63;63.18;96772.72;4966737;29;20526;-94
2021/06/10 09:44:41;;;;;;;23.93;18.13;;;;;;;24.49;63.89;96764.59;4968274;29;20522;-93
2021/06/10 09:47:08;;;;;;;18.90;17.00;;;;;;;24.77;62.63;96768.53;4969210;28;21019;-93
2021/06/10 09:49:35;;;;;;;19.47;17.17;;;;;;;24.42;64.03;96766.38;4969207;29;20881;-92
2021/06/10 09:52:02;;;;;;;24.40;18.30;;;;;;;24.70;63.55;96758.56;4965070;29;21000;-91
2021/06/10 09:54:40;;;;;;;17.53;15.73;;;;;;;25.00;62.17;96761.88;4965440;29;20503;-92
2021/06/10 09:57:06;;;;;;;19.13;16.83;;;;;;;25.30;61.10;96765.88;4964807;28;20474;-93
2021/06/10 09:59:58;;;;;;;21.30;16.50;;;;;;;25.13;62.17;96763.78;4966249;29;20526;-92
2021/06/10 10:02:26;;;;;;;19.37;17.13;;;;;;;24.98;61.80;96759.03;4947028;29;20523;-91
2021/06/10 10:05:07;;;;;;;22.60;18.03;;;;;;;24.78;61.54;96755.41;4963113;28;20489;-93
2021/06/10 10:07:35;;;;;;;19.97;17.77;;;;;;;24.66;61.89;96752.16;4963082;29;20435;-92
2021/06/10 10:10:03;;;;;;;18.30;16.20;;;;;;;24.89;61.85;96744.19;4965595;29;20451;-92
2021/06/10 10:12:30;;;;;;;21.60;15.77;;;;;;;25.01;61.72;96749.50;4962965;29;21115;-93
2021/06/10 10:15:00;;;;;;;19.43;17.13;;;;;;;24.84;62.07;96744.66;4962046;28;20459;-90
2021/06/10 10:17:28;;;;;;;17.90;16.40;;;;;;;25.06;60.37;96751.06;4963012;29;20474;-91
2021/06/10 10:19:56;;;;;;;21.23;17.50;;;;;;;25.13;60.10;96746.50;4962791;29;20459;-91
2021/06/10 10:22:23;;;;;;;19.73;17.73;;;;;;;25.44;59.30;96743.56;4961129;29;20435;-92
2021/06/10 10:24:52;;;;;;;19.07;17.07;;;;;;;25.89;58.42;96738.41;4962885;28;20457;-92
2021/06/10 10:27:18;;;;;;;19.50;17.50;;;;;;;25.91;55.35;96738.47;4962649;29;20467;-90
2021/06/10 10:29:46;;;;;;;20.70;18.60;;;;;;;25.94;55.37;96744.78;4961942;29;20533;-92
2021/06/10 10:32:20;;;;;;;21.20;18.60;;;;;;;25.62;57.23;96746.38;4962271;29;20999;-91
2021/06/10 10:34:47;;;;;;;19.60;17.80;;;;;;;25.30;58.93;96746.53;4968366;28;20430;-90
2021/06/10 10:37:25;;;;;;;19.83;17.83;;;;;;;25.11;59.44;96751.94;4977759;28;20466;-92
2021/06/10 10:39:54;;;;;;;18.17;16.47;;;;;;;25.32;60.06;96735.53;4978501;28;20438;-92
2021/06/10 10:42:30;;;;;;;18.40;16.50;;;;;;;25.41;59.20;96731.75;4968974;28;20521;-92
2021/06/10 10:45:20;;;;;;;21.30;19.20;;;;;;;25.18;58.85;96735.00;4962644;28;20432;-92
2021/06/10 10:47:56;;;;;;;21.20;19.17;;;;;;;25.10;59.11;96729.13;4961673;28;20459;-92
2021/06/10 10:50:35;;;;;;;22.60;18.27;;;;;;;25.29;58.31;96734.03;4966304;29;20481;-90
2021/06/10 10:53:01;;;;;;;19.60;17.50;;;;;;;25.48;57.61;96725.09;4968603;29;20545;-90
2021/06/10 10:55:30;;;;;;;19.47;17.57;;;;;;;25.40;58.00;96726.84;4970250;28;20470;-92
2021/06/10 10:58:01;;;;;;;19.17;17.27;;;;;;;25.41;58.14;96717.19;4971600;29;20450;-92
2021/06/10 11:00:55;;;;;;;22.27;19.30;;;;;;;25.06;58.62;96715.16;4968837;29;20489;-92
2021/06/10 11:03:29;;;;;;;19.90;18.00;;;;;;;25.21;58.50;96719.19;4967624;29;20462;-93
2021/06/10 11:05:57;;;;;;;20.20;18.40;;;;;;;25.09;58.70;96718.72;4968448;28;20489;-92
2021/06/10 11:08:58;;;;;;;20.83;18.40;;;;;;;25.09;59.29;96722.22;4968754;29;20477;-90
2021/06/10 11:11:49;;;;;;;21.13;19.03;;;;;;;25.20;57.91;96710.19;4964298;29;20434;-91
2021/06/10 11:14:34;;;;;;;20.87;18.80;;;;;;;24.95;58.51;96710.59;4966914;29;20474;-92
2021/06/10 11:17:18;;;;;;;17.73;15.97;;;;;;;24.92;59.37;96704.28;4971131;28;20582;-94
2021/06/10 11:20:06;;;;;;;18.10;16.30;;;;;;;25.18;59.75;96707.38;4967066;29;20582;-92
2021/06/10 11:22:37;;;;;;;18.20;16.30;;;;;;;25.40;58.42;96701.97;4973247;29;20438;-91
2021/06/10 11:25:06;;;;;;;19.30;16.70;;;;;;;25.58;57.97;96691.63;4968900;28;20454;-90
2021/06/10 11:27:38;;;;;;;19.13;17.33;;;;;;;25.80;58.29;96691.72;4966453;29;20465;-90
2021/06/10 11:30:16;;;;;;;19.03;17.17;;;;;;;26.10;57.71;96698.34;4967418;29;20507;-91
2021/06/10 11:33:22;;;;;;;22.00;18.60;;;;;;;25.79;57.37;96695.84;4964357;29;20890;-91
2021/06/10 11:35:51;;;;;;;23.60;19.40;;;;;;;25.83;58.22;96693.22;4965996;28;20530;-92
2021/06/10 11:38:22;;;;;;;24.93;22.53;;;;;;;25.73;57.83;96698.38;4968085;29;20539;-92
2021/06/10 11:40:50;;;;;;;22.43;20.17;;;;;;;25.86;57.59;96703.72;4967523;29;20442;-94
2021/06/10 11:43:17;;;;;;;20.30;18.20;;;;;;;26.07;57.39;96694.09;4966981;29;20447;-93